Date,TemperatureHighF,TemperatureAvgF,TemperatureLowF,DewpointHighF,DewpointAvgF,DewpointLowF,HumidityHigh,HumidityAvg,HumidityLow,PressureMaxIn,PressureMinIn,WindSpeedMaxMPH,WindSpeedAvgMPH,GustSpeedMaxMPH,PrecipitationSumIn
2013-1-1,35,29,16,27,16,3,79,60,45,29.94,29.70,5,2,17,0.00
2013-1-2,26,16,6,17,6,-6,85,66,57,30.13,29.91,5,1,12,0.00
2013-1-3,23,9,-2,6,-2,-8,84,61,31,30.15,30.01,3,1,11,0.00
2013-1-4,37,25,6,24,17,3,94,75,56,30.01,29.81,5,0,13,0.00
2013-1-5,39,31,18,25,20,15,89,65,44,30.27,29.83,5,2,13,0.00
2013-1-6,40,29,18,29,24,15,92,83,62,30.24,29.94,3,0,9,0.00
2013-1-7,35,27,16,28,20,13,96,77,46,30.41,29.96,4,1,10,0.00
2013-1-8,44,29,16,28,23,14,95,79,50,30.38,30.27,3,0,11,0.02
2013-1-9,43,31,17,34,26,15,96,82,59,30.42,30.00,6,0,14,0.06
2013-1-10,44,40,29,30,26,23,79,58,47,30.55,30.02,9,3,20,0.09
2013-1-11,39,31,22,34,27,20,97,85,65,30.54,30.25,1,0,2,0.18
2013-1-12,41,38,34,40,36,33,98,97,95,30.25,30.14,1,0,2,0.22
2013-1-13,47,43,38,47,43,37,100,99,98,30.16,29.99,1,0,4,0.01
2013-1-14,59,47,38,51,41,27,100,80,46,30.25,29.86,4,1,16,0.00
2013-1-15,38,37,35,28,27,26,73,68,65,30.29,30.25,1,1,5,0.00
2013-1-18,17,14,13,7,6,5,72,70,67,30.41,30.38,0,0,1,0.00
2013-1-19,45,33,17,28,20,7,83,60,45,30.38,29.89,4,1,16,0.14
2013-1-20,51,38,27,32,24,10,83,58,28,29.93,29.54,8,3,26,0.05
2013-1-21,27,23,16,20,9,1,93,58,41,30.09,29.82,5,1,18,0.01
2013-1-22,23,17,9,19,9,-3,94,70,37,30.08,29.78,5,2,15,0.00
2013-1-23,13,7,-2,0,-9,-13,73,49,29,30.15,30.06,5,2,18,0.00
2013-1-24,17,6,-5,-7,-10,-12,72,48,30,30.24,30.08,7,3,20,0.00
2013-1-25,21,13,5,8,-5,-10,71,44,28,30.33,30.09,5,2,14,0.00
2013-1-26,22,15,9,11,2,-7,87,60,33,30.24,30.03,5,2,13,0.00
2013-1-27,29,19,11,4,1,-3,67,47,26,30.48,30.23,6,2,16,0.00
2013-1-28,30,22,15,22,10,-1,93,63,37,30.47,30.05,3,0,7,0.00
2013-1-29,35,29,23,31,26,21,96,89,79,30.21,30.05,2,0,3,0.05
2013-1-30,57,43,32,56,42,31,100,97,94,30.17,29.47,3,0,15,0.39
2013-1-31,57,40,29,55,28,15,98,62,42,29.57,28.94,9,4,31,0.45